createdAt,value
2022-10-11T00:26:34.440Z,100877.30
2022-10-11T00:56:37.614Z,100913.88
2022-10-11T01:26:40.601Z,100924.66
2022-10-11T01:56:43.708Z,100968.05
2022-10-11T02:26:46.824Z,101005.52
2022-10-11T02:56:50.675Z,101023.81
2022-10-11T03:26:53.932Z,101069.61
2022-10-11T03:56:57.982Z,101122.81
2022-10-11T04:27:01.476Z,101172.94
2022-10-11T04:57:04.313Z,101208.97
2022-10-11T05:27:07.958Z,101256.10
2022-10-11T05:57:10.728Z,101313.39
2022-10-11T06:27:14.802Z,101363.47
2022-10-11T06:57:17.482Z,101403.43
2022-10-11T07:27:21.759Z,101455.56
2022-10-11T07:57:24.527Z,101492.64
2022-10-11T08:27:28.410Z,101500.59
2022-10-11T08:57:31.115Z,101513.13
2022-10-11T09:27:57.739Z,101523.54
2022-10-11T09:57:58.421Z,101516.02
2022-10-11T10:28:01.747Z,101524.81
2022-10-11T10:58:04.421Z,101536.48
2022-10-11T11:28:09.650Z,101543.88
2022-10-11T11:58:12.580Z,101540.89
2022-10-11T12:28:16.630Z,101543.42
2022-10-11T12:58:19.409Z,101535.76
2022-10-11T13:28:23.108Z,101545.39
2022-10-11T13:58:25.938Z,101548.11
2022-10-11T14:28:29.263Z,101552.78
2022-10-11T14:58:32.117Z,101564.91
2022-10-11T15:28:36.362Z,101582.77
2022-10-11T15:58:39.263Z,101603.73
2022-10-11T16:28:43.516Z,101616.27
2022-10-11T16:58:46.300Z,101640.70
2022-10-11T17:28:51.067Z,101657.57
2022-10-11T17:58:54.103Z,101677.64
2022-10-11T18:28:57.401Z,101691.50
2022-10-11T18:59:00.334Z,101693.05
2022-10-11T19:29:05.731Z,101685.11
2022-10-11T19:59:08.877Z,101697.78
2022-10-11T20:29:12.050Z,101697.59
2022-10-11T20:59:17.451Z,101699.81
2022-10-11T21:29:21.185Z,101709.74
2022-10-11T21:59:24.303Z,101726.38
2022-10-11T22:29:31.770Z,101719.03
2022-10-11T22:59:37.425Z,101725.80
2022-10-11T23:29:41.198Z,101735.73
2022-10-11T23:59:44.141Z,101744.32
